Time;durP1;ratioP1;P1;durP2;ratioP2;P2;SDS_P1;SDS_P2;PMS_P1;PMS_P2;Temp;Humidity;BMP_temperature;BMP_pressure;BME280_temperature;BME280_humidity;BME280_pressure;Samples;Min_cycle;Max_cycle;Signal;HPM_P1;HPM_P2
2023/11/20 00:00:26;;;;;;;9.80;6.10;;;;;;;5.23;60.37;99978.32;108279;1284;22038;-62
2023/11/20 00:02:52;;;;;;;14.30;8.00;;;;;;;5.24;60.39;99976.60;108241;1274;21989;-60
2023/11/20 00:05:19;;;;;;;12.30;7.50;;;;;;;5.21;60.05;99975.02;108195;1277;21990;-60
2023/11/20 00:07:46;;;;;;;9.50;7.10;;;;;;;5.20;60.06;99973.45;108276;1281;21974;-59
2023/11/20 00:10:11;;;;;;;10.90;6.90;;;;;;;5.21;59.77;99973.45;108240;1284;22083;-59
2023/11/20 00:12:37;;;;;;;10.30;6.50;;;;;;;5.22;59.84;99973.11;108182;1278;21988;-59
2023/11/20 00:15:03;;;;;;;12.30;7.30;;;;;;;5.19;59.60;99969.09;107448;1284;1003128;-59
2023/11/20 00:17:29;;;;;;;9.90;7.00;;;;;;;5.19;59.88;99960.41;108258;1280;21985;-59
2023/11/20 00:19:55;;;;;;;9.80;6.90;;;;;;;5.18;59.80;99956.74;108260;1274;22059;-60
2023/11/20 00:22:21;;;;;;;9.90;6.60;;;;;;;5.16;59.87;99952.56;108194;1285;21989;-62
2023/11/20 00:24:46;;;;;;;13.70;6.90;;;;;;;5.15;60.09;99947.86;108193;1277;21982;-60
2023/11/20 00:27:12;;;;;;;12.30;7.80;;;;;;;5.15;59.77;99941.59;108196;1280;22102;-60
2023/11/20 00:29:38;;;;;;;12.50;7.70;;;;;;;5.15;59.79;99944.91;108206;1285;21985;-59
2023/11/20 00:32:04;;;;;;;11.80;7.90;;;;;;;5.14;59.70;99941.77;108222;1284;21987;-62
2023/11/20 00:34:30;;;;;;;15.50;8.70;;;;;;;5.10;59.50;99939.69;108276;1279;22081;-60
2023/11/20 00:36:55;;;;;;;10.90;7.70;;;;;;;5.11;59.46;99942.45;108226;1285;22044;-58
2023/11/20 00:39:21;;;;;;;13.70;9.10;;;;;;;5.09;59.72;99940.71;108221;1274;22028;-59
2023/11/20 00:41:46;;;;;;;14.20;8.20;;;;;;;5.09;59.67;99941.93;108263;1274;22011;-60
2023/11/20 00:44:15;;;;;;;13.30;8.50;;;;;;;5.13;59.68;99942.99;108242;1285;22062;-60
2023/11/20 00:46:40;;;;;;;18.50;8.90;;;;;;;5.12;59.72;99943.85;108333;1282;22005;-60
2023/11/20 00:49:06;;;;;;;14.60;9.00;;;;;;;5.05;59.64;99942.63;108197;1277;22023;-61
2023/11/20 00:51:32;;;;;;;15.70;8.40;;;;;;;5.03;59.90;99943.31;108252;1274;22011;-60
2023/11/20 00:53:58;;;;;;;13.70;8.10;;;;;;;5.04;60.03;99941.58;108182;1278;22100;-60
2023/11/20 00:56:24;;;;;;;11.90;8.40;;;;;;;5.03;59.83;99938.79;108239;1274;21969;-61
2023/11/20 00:58:49;;;;;;;13.50;9.50;;;;;;;4.98;59.89;99938.25;108278;1277;21975;-60
2023/11/20 01:01:16;;;;;;;15.80;9.40;;;;;;;4.98;60.05;99943.81;108260;1278;21991;-60
2023/11/20 01:03:41;;;;;;;12.90;8.40;;;;;;;5.01;60.08;99942.61;108266;1285;21983;-61
2023/11/20 01:06:08;;;;;;;14.10;9.20;;;;;;;5.00;60.08;99942.95;108321;1285;22004;-59
2023/11/20 01:08:35;;;;;;;12.50;8.70;;;;;;;5.00;59.92;99942.43;108265;1278;21990;-60
2023/11/20 01:11:01;;;;;;;13.30;7.60;;;;;;;5.04;59.77;99941.05;108233;1277;21987;-59
2023/11/20 01:13:27;;;;;;;10.40;7.30;;;;;;;5.08;59.99;99945.77;108278;1278;21982;-60
2023/11/20 01:15:53;;;;;;;13.00;8.20;;;;;;;5.12;59.92;99947.67;108269;1280;21991;-59
2023/11/20 01:18:18;;;;;;;13.40;8.50;;;;;;;5.13;59.92;99949.08;108259;1285;21986;-60
2023/11/20 01:20:45;;;;;;;14.90;8.10;;;;;;;5.17;60.13;99950.66;108252;1277;21979;-59
2023/11/20 01:23:10;;;;;;;13.40;8.10;;;;;;;5.22;59.78;99948.76;108256;1277;22010;-60
2023/11/20 01:25:36;;;;;;;13.80;7.90;;;;;;;5.24;59.72;99949.46;108269;1277;22452;-60
2023/11/20 01:28:02;;;;;;;12.30;7.60;;;;;;;5.22;59.73;99950.33;108090;1284;22008;-60
2023/11/20 01:30:28;;;;;;;13.90;8.40;;;;;;;5.18;59.52;99951.52;108223;1284;21982;-60
2023/11/20 01:32:54;;;;;;;11.20;7.60;;;;;;;5.13;59.47;99950.46;108220;1285;21958;-60
2023/11/20 01:35:20;;;;;;;12.70;8.30;;;;;;;5.10;59.54;99949.58;108281;1274;22040;-60
2023/11/20 01:37:46;;;;;;;14.80;8.80;;;;;;;5.07;59.58;99950.98;108225;1274;21986;-60
2023/11/20 01:40:15;;;;;;;14.50;8.70;;;;;;;5.08;59.49;99949.94;107569;1285;1002166;-60
2023/11/20 01:42:41;;;;;;;12.80;8.70;;;;;;;5.06;59.59;99945.94;108214;1274;21992;-60
2023/11/20 01:45:10;;;;;;;16.00;9.50;;;;;;;5.03;59.14;99948.18;108197;1284;22008;-59
2023/11/20 01:47:36;;;;;;;14.50;8.90;;;;;;;5.00;59.25;99950.08;107491;1284;1003023;-59
2023/11/20 01:50:09;;;;;;;14.00;9.40;;;;;;;4.99;59.61;99948.00;108293;1284;22035;-60
2023/11/20 01:52:39;;;;;;;13.40;8.20;;;;;;;5.00;59.50;99944.70;108239;1281;22042;-60
2023/11/20 01:55:05;;;;;;;15.20;9.20;;;;;;;4.98;59.35;99942.07;108197;1285;21981;-59
2023/11/20 01:57:31;;;;;;;13.20;9.10;;;;;;;4.96;59.25;99939.80;108175;1284;22017;-61
2023/11/20 01:59:59;;;;;;;13.40;8.90;;;;;;;4.97;59.43;99939.98;108195;1277;23852;-61
2023/11/20 02:02:25;;;;;;;17.80;9.40;;;;;;;4.96;59.17;99941.38;107452;1278;1003813;-62
2023/11/20 02:04:51;;;;;;;12.10;8.30;;;;;;;4.96;59.25;99943.98;107459;1278;1003363;-61
2023/11/20 02:07:17;;;;;;;13.80;8.90;;;;;;;4.97;59.21;99942.23;108142;1285;22035;-61
2023/11/20 02:09:43;;;;;;;15.40;8.00;;;;;;;4.94;59.14;99940.31;108082;1281;21982;-60
2023/11/20 02:12:08;;;;;;;14.10;8.40;;;;;;;4.94;59.19;99944.67;108076;1274;21992;-61
2023/11/20 02:14:34;;;;;;;14.00;9.10;;;;;;;4.94;59.34;99948.84;108107;1280;21983;-61
2023/11/20 02:16:59;;;;;;;13.30;8.70;;;;;;;4.93;59.11;99947.27;108190;1284;21997;-60
2023/11/20 02:19:25;;;;;;;12.30;8.60;;;;;;;4.95;59.22;99951.80;108094;1282;21997;-61
2023/11/20 02:21:51;;;;;;;14.90;9.00;;;;;;;4.95;59.30;99953.02;108107;1280;21994;-60
2023/11/20 02:24:16;;;;;;;14.60;9.30;;;;;;;4.94;59.47;99954.05;108092;1285;21982;-61
2023/11/20 02:26:55;;;;;;;14.20;9.00;;;;;;;4.93;59.49;99956.30;107351;1285;1002375;-61
2023/11/20 02:29:39;;;;;;;15.30;8.60;;;;;;;4.88;59.17;99958.38;108182;1284;21991;-60
2023/11/20 02:32:04;;;;;;;14.60;8.40;;;;;;;4.82;59.14;99959.23;107322;1284;1003089;-60
2023/11/20 02:34:30;;;;;;;13.60;9.00;;;;;;;4.82;59.29;99960.78;108151;1281;21983;-60
2023/11/20 02:36:57;;;;;;;14.80;8.80;;;;;;;4.83;59.10;99959.58;108145;1281;22026;-59
2023/11/20 02:39:23;;;;;;;12.50;8.50;;;;;;;4.81;59.02;99961.66;108088;1280;21990;-59
2023/11/20 02:41:50;;;;;;;15.30;9.20;;;;;;;4.80;58.88;99963.23;108222;1274;21994;-59
2023/11/20 02:44:16;;;;;;;16.40;9.40;;;;;;;4.81;58.91;99965.48;108273;1285;22099;-59
2023/11/20 02:46:43;;;;;;;11.80;7.60;;;;;;;4.79;58.90;99964.08;108269;1284;21986;-59
2023/11/20 02:49:08;;;;;;;11.70;8.20;;;;;;;4.82;59.25;99968.44;108157;1281;22034;-60
2023/11/20 02:51:34;;;;;;;15.40;9.70;;;;;;;4.83;59.08;99966.20;108255;1285;22002;-59
2023/11/20 02:53:59;;;;;;;13.80;9.10;;;;;;;4.82;58.99;99964.27;108195;1281;22021;-60
2023/11/20 02:56:26;;;;;;;13.60;9.50;;;;;;;4.81;58.79;99963.74;108193;1278;22030;-59
2023/11/20 02:58:51;;;;;;;14.60;8.40;;;;;;;4.79;58.84;99962.86;108253;1280;21985;-59
2023/11/20 03:01:17;;;;;;;15.30;8.80;;;;;;;4.80;58.98;99963.20;108205;1282;21983;-60
2023/11/20 03:03:42;;;;;;;13.20;7.90;;;;;;;4.82;59.04;99969.48;107500;1278;1002398;-59
2023/11/20 03:06:08;;;;;;;13.20;8.20;;;;;;;4.86;59.12;99972.29;108232;1274;21990;-60
2023/11/20 03:08:34;;;;;;;15.00;9.60;;;;;;;4.86;58.97;99971.23;107468;1285;1003391;-61
2023/11/20 03:10:59;;;;;;;14.30;8.40;;;;;;;4.86;58.69;99968.45;107484;1285;1002640;-60
2023/11/20 03:13:25;;;;;;;17.50;10.20;;;;;;;4.84;58.63;99966.72;107476;1285;1002348;-60
2023/11/20 03:15:51;;;;;;;16.20;9.90;;;;;;;4.82;58.56;99965.84;108227;1275;21988;-60
2023/11/20 03:18:18;;;;;;;23.90;10.40;;;;;;;4.79;58.50;99966.52;108189;1275;21998;-61
2023/11/20 03:20:43;;;;;;;24.50;11.20;;;;;;;4.82;58.51;99962.01;108321;1278;22050;-61
2023/11/20 03:23:13;;;;;;;26.60;12.10;;;;;;;4.79;58.10;99957.12;107467;1285;1002580;-60
2023/11/20 03:25:40;;;;;;;28.00;10.80;;;;;;;4.76;58.18;99952.24;108239;1285;21988;-60
2023/11/20 03:28:05;;;;;;;25.40;12.00;;;;;;;4.77;58.40;99953.13;108256;1277;21974;-60
2023/11/20 03:30:34;;;;;;;23.80;11.20;;;;;;;4.75;58.39;99949.12;108223;1275;22052;-61
2023/11/20 03:32:59;;;;;;;16.80;10.20;;;;;;;4.71;58.51;99948.22;107447;1285;1002354;-60
2023/11/20 03:35:25;;;;;;;17.70;10.60;;;;;;;4.69;58.43;99944.73;107475;1278;1002302;-60
2023/11/20 03:37:50;;;;;;;14.20;9.40;;;;;;;4.68;58.17;99942.46;107342;1282;1002216;-60
2023/11/20 03:40:16;;;;;;;15.10;9.30;;;;;;;4.65;58.25;99939.85;108249;1280;22025;-60
2023/11/20 03:42:42;;;;;;;18.20;9.70;;;;;;;4.62;58.33;99941.41;108192;1284;21982;-60
2023/11/20 03:45:08;;;;;;;19.60;9.80;;;;;;;4.62;58.05;99941.41;108279;1285;21991;-60
2023/11/20 03:47:34;;;;;;;20.60;10.10;;;;;;;4.62;58.29;99938.28;108224;1285;21972;-60
2023/11/20 03:50:00;;;;;;;16.50;9.40;;;;;;;4.65;58.50;99938.64;108238;1278;21986;-60
2023/11/20 03:52:26;;;;;;;14.90;9.60;;;;;;;4.67;58.39;99940.38;107497;1278;1002969;-60
2023/11/20 03:54:52;;;;;;;18.10;8.30;;;;;;;4.67;58.21;99940.90;108183;1284;22097;-58
2023/11/20 03:57:17;;;;;;;17.90;9.20;;;;;;;4.69;58.33;99938.81;108197;1281;22087;-61
2023/11/20 03:59:43;;;;;;;14.40;9.20;;;;;;;4.68;58.21;99936.73;107448;1285;1002675;-61
2023/11/20 04:02:08;;;;;;;15.40;8.50;;;;;;;4.67;58.21;99933.77;107493;1280;1002258;-61
2023/11/20 04:04:34;;;;;;;16.60;9.30;;;;;;;4.67;58.16;99929.77;107472;1285;1002769;-61
2023/11/20 04:06:59;;;;;;;19.30;10.80;;;;;;;4.68;58.14;99927.35;108218;1280;21978;-60
2023/11/20 04:09:25;;;;;;;15.70;8.90;;;;;;;4.68;58.35;99927.70;108245;1278;22056;-61
2023/11/20 04:11:51;;;;;;;14.20;8.90;;;;;;;4.66;58.25;99926.82;107459;1285;1002211;-62
2023/11/20 04:14:17;;;;;;;15.50;9.10;;;;;;;4.66;57.91;99926.64;108204;1282;22044;-60
2023/11/20 04:16:42;;;;;;;18.00;9.40;;;;;;;4.65;57.98;99924.38;108143;1277;22031;-60
2023/11/20 04:19:09;;;;;;;17.10;9.60;;;;;;;4.67;57.98;99924.21;108145;1285;21986;-60
2023/11/20 04:21:35;;;;;;;15.90;10.20;;;;;;;4.65;57.66;99922.81;108129;1281;21994;-61
2023/11/20 04:24:00;;;;;;;16.80;9.00;;;;;;;4.62;57.80;99921.07;108097;1283;21987;-60
2023/11/20 04:26:26;;;;;;;14.80;9.00;;;;;;;4.64;57.96;99919.67;108160;1277;21998;-61
2023/11/20 04:28:52;;;;;;;17.60;9.80;;;;;;;4.63;57.81;99920.73;108198;1279;22044;-60
2023/11/20 04:31:17;;;;;;;18.60;9.70;;;;;;;4.59;57.64;99923.14;107494;1285;1002265;-60
2023/11/20 04:33:43;;;;;;;16.90;10.20;;;;;;;4.59;57.68;99925.75;108261;1281;21985;-60
2023/11/20 04:36:12;;;;;;;18.10;10.30;;;;;;;4.59;57.59;99925.75;108238;1285;22001;-61
2023/11/20 04:38:38;;;;;;;17.80;10.00;;;;;;;4.56;57.50;99924.17;108159;1285;21989;-61
2023/11/20 04:41:05;;;;;;;20.00;11.30;;;;;;;4.54;57.58;99926.06;108150;1285;22034;-60
2023/11/20 04:43:31;;;;;;;19.70;10.30;;;;;;;4.56;57.61;99927.99;108122;1274;22031;-61
2023/11/20 04:45:57;;;;;;;19.00;9.90;;;;;;;4.59;57.61;99929.92;108174;1285;21991;-60
2023/11/20 04:48:23;;;;;;;17.80;9.90;;;;;;;4.57;57.82;99926.61;108287;1274;21991;-60
2023/11/20 04:50:48;;;;;;;18.30;10.60;;;;;;;4.54;57.51;99926.59;108249;1284;22093;-60
2023/11/20 04:53:14;;;;;;;17.80;10.20;;;;;;;4.54;57.45;99929.36;108300;1280;22035;-60
2023/11/20 04:55:39;;;;;;;16.00;9.80;;;;;;;4.57;57.59;99929.55;108216;1279;21989;-61
2023/11/20 04:58:05;;;;;;;16.30;10.20;;;;;;;4.59;57.74;99925.05;108234;1283;22018;-61
2023/11/20 05:00:31;;;;;;;34.20;11.70;;;;;;;4.58;57.42;99927.66;108132;1284;22025;-60
2023/11/20 05:02:57;;;;;;;18.30;11.20;;;;;;;4.63;57.53;99928.02;108189;1275;22460;-60
2023/11/20 05:05:23;;;;;;;19.80;10.20;;;;;;;4.69;58.00;99929.27;108228;1281;21975;-59
2023/11/20 05:07:49;;;;;;;17.10;10.20;;;;;;;4.69;57.67;99931.69;108189;1276;22026;-59
2023/11/20 05:10:15;;;;;;;21.10;10.70;;;;;;;4.66;57.51;99933.75;108185;1284;22034;-59
2023/11/20 05:12:41;;;;;;;20.50;10.80;;;;;;;4.70;57.77;99935.17;108115;1280;22457;-59
2023/11/20 05:15:08;;;;;;;26.20;10.30;;;;;;;4.74;57.68;99938.84;107462;1284;1002975;-60
2023/11/20 05:17:34;;;;;;;22.90;11.30;;;;;;;4.78;57.79;99935.57;108251;1284;22036;-59
2023/11/20 05:19:59;;;;;;;18.30;10.20;;;;;;;4.76;57.56;99932.95;108222;1274;22050;-60
2023/11/20 05:22:25;;;;;;;31.30;12.40;;;;;;;4.71;57.27;99935.01;108230;1278;22031;-60
2023/11/20 05:24:50;;;;;;;18.20;10.70;;;;;;;4.73;57.64;99933.28;108177;1284;22028;-60
2023/11/20 05:27:16;;;;;;;26.20;11.90;;;;;;;4.76;57.58;99934.87;108235;1271;22011;-61
2023/11/20 05:29:43;;;;;;;21.80;11.40;;;;;;;4.76;57.49;99937.64;108253;1277;21992;-61
2023/11/20 05:32:08;;;;;;;18.80;10.20;;;;;;;4.72;57.27;99939.70;108257;1274;23452;-61
2023/11/20 05:34:34;;;;;;;30.50;14.50;;;;;;;4.70;57.21;99936.90;108243;1284;22028;-61
2023/11/20 05:37:00;;;;;;;20.40;11.00;;;;;;;4.70;57.38;99936.05;108214;1284;22078;-61
2023/11/20 05:39:26;;;;;;;26.90;12.30;;;;;;;4.71;57.34;99937.10;108314;1275;21990;-60
2023/11/20 05:41:54;;;;;;;26.40;13.00;;;;;;;4.73;57.27;99937.97;108214;1284;21987;-61
2023/11/20 05:44:20;;;;;;;25.40;11.40;;;;;;;4.75;57.57;99937.64;108288;1283;22026;-60
2023/11/20 05:46:46;;;;;;;23.90;11.30;;;;;;;4.79;57.58;99940.26;108223;1282;22052;-60
2023/11/20 05:49:11;;;;;;;20.50;11.50;;;;;;;4.77;57.17;99941.29;108233;1275;21992;-60
2023/11/20 05:51:37;;;;;;;19.80;10.90;;;;;;;4.70;56.93;99942.65;108219;1285;21998;-61
2023/11/20 05:54:03;;;;;;;19.50;11.40;;;;;;;4.68;56.81;99940.55;108257;1285;21994;-61
2023/11/20 05:56:29;;;;;;;19.40;10.90;;;;;;;4.71;57.15;99940.21;108298;1284;22007;-61
2023/11/20 05:58:56;;;;;;;17.50;10.60;;;;;;;4.71;57.18;99940.91;108331;1283;21986;-62
2023/11/20 06:01:21;;;;;;;19.70;10.70;;;;;;;4.67;56.99;99942.11;108313;1272;23868;-62
2023/11/20 06:03:47;;;;;;;19.20;11.40;;;;;;;4.71;56.98;99941.79;108134;1284;21997;-61
2023/11/20 06:06:22;;;;;;;20.90;11.70;;;;;;;4.70;57.01;99942.48;108133;1285;22141;-61
2023/11/20 06:08:48;;;;;;;21.40;11.60;;;;;;;4.74;57.00;99943.89;108210;1285;22110;-61
2023/11/20 06:11:20;;;;;;;21.30;11.90;;;;;;;4.79;57.33;99944.95;108195;1284;21997;-60
2023/11/20 06:13:46;;;;;;;19.90;12.00;;;;;;;4.77;57.27;99948.95;108190;1275;21982;-61
2023/11/20 06:16:15;;;;;;;19.50;11.50;;;;;;;4.78;57.19;99951.73;108332;1284;21983;-62
2023/11/20 06:18:41;;;;;;;16.60;10.20;;;;;;;4.81;57.14;99953.84;108254;1283;21990;-62
2023/11/20 06:21:08;;;;;;;25.50;12.80;;;;;;;4.82;56.96;99954.18;108175;1284;21986;-62
2023/11/20 06:23:34;;;;;;;22.50;10.90;;;;;;;4.75;56.62;99953.27;108205;1284;22099;-61
2023/11/20 06:26:01;;;;;;;18.50;11.30;;;;;;;4.70;56.80;99953.77;108162;1281;21992;-62
2023/11/20 06:28:27;;;;;;;18.20;11.00;;;;;;;4.69;56.86;99958.12;108135;1284;22012;-62
2023/11/20 06:30:53;;;;;;;18.10;10.60;;;;;;;4.70;57.04;99962.11;108173;1285;22003;-62
2023/11/20 06:33:20;;;;;;;18.90;11.00;;;;;;;4.65;57.00;99967.66;108140;1284;21985;-62
2023/11/20 06:35:45;;;;;;;16.60;9.90;;;;;;;4.69;57.32;99962.81;108268;1284;22043;-61
2023/11/20 06:38:11;;;;;;;17.10;10.60;;;;;;;4.71;57.26;99962.81;108258;1285;21989;-61
2023/11/20 06:40:37;;;;;;;19.40;11.00;;;;;;;4.76;57.25;99966.49;108112;1277;22623;-61
2023/11/20 06:43:05;;;;;;;19.70;10.90;;;;;;;4.76;56.77;99969.11;108157;1285;21987;-62
2023/11/20 06:45:30;;;;;;;21.30;11.40;;;;;;;4.83;56.84;99964.63;108155;1285;22045;-61
2023/11/20 06:47:57;;;;;;;17.30;10.00;;;;;;;4.87;57.17;99962.89;108115;1285;21991;-62
2023/11/20 06:50:24;;;;;;;16.50;9.70;;;;;;;4.81;56.85;99961.48;108163;1274;22047;-62
2023/11/20 06:52:56;;;;;;;20.60;10.90;;;;;;;4.87;56.90;99961.16;107400;1281;1003170;-62
2023/11/20 06:55:22;;;;;;;18.50;11.50;;;;;;;4.94;56.81;99958.23;108196;1285;22007;-62
2023/11/20 06:57:48;;;;;;;20.50;11.70;;;;;;;4.95;56.64;99952.31;108271;1285;22021;-62
2023/11/20 07:00:13;;;;;;;20.30;11.30;;;;;;;4.92;56.52;99956.48;108142;1285;22113;-61
2023/11/20 07:02:42;;;;;;;21.00;12.50;;;;;;;4.94;56.78;99961.88;108197;1281;22171;-62
2023/11/20 07:05:11;;;;;;;17.40;11.10;;;;;;;5.02;57.04;99961.04;108105;1284;22049;-61
2023/11/20 07:07:41;;;;;;;22.30;10.70;;;;;;;5.07;57.11;99961.76;108183;1280;23824;-61
2023/11/20 07:10:11;;;;;;;19.50;10.90;;;;;;;5.10;56.97;99964.02;108322;1280;21986;-61
2023/11/20 07:12:38;;;;;;;14.90;9.90;;;;;;;5.13;56.88;99966.11;108333;1280;22003;-62
2023/11/20 07:15:07;;;;;;;19.20;10.70;;;;;;;5.18;57.15;99968.57;108271;1284;22028;-61
2023/11/20 07:17:57;;;;;;;21.80;12.10;;;;;;;5.26;57.24;99972.08;108202;1285;21989;-61
2023/11/20 07:20:23;;;;;;;19.20;10.60;;;;;;;5.32;56.92;99972.25;108259;1284;22080;-61
2023/11/20 07:22:48;;;;;;;18.90;10.00;;;;;;;5.21;56.68;99967.90;108205;1284;22448;-61
2023/11/20 07:25:14;;;;;;;18.10;9.80;;;;;;;5.24;56.63;99965.63;108221;1278;21989;-61
2023/11/20 07:27:40;;;;;;;18.00;10.80;;;;;;;5.22;56.80;99969.29;108204;1284;21992;-62
2023/11/20 07:30:07;;;;;;;19.00;11.50;;;;;;;5.26;56.99;99967.91;108212;1281;22021;-60
2023/11/20 07:32:35;;;;;;;19.30;10.90;;;;;;;5.28;56.87;99968.27;108313;1282;21987;-61
2023/11/20 07:35:03;;;;;;;17.10;10.20;;;;;;;5.39;57.16;99966.71;108250;1285;23784;-60
2023/11/20 07:37:30;;;;;;;20.80;10.00;;;;;;;5.37;57.18;99967.76;108318;1280;22151;-60
2023/11/20 07:39:56;;;;;;;20.70;11.20;;;;;;;5.44;57.25;99971.78;108309;1285;21979;-60
2023/11/20 07:42:22;;;;;;;17.60;9.80;;;;;;;5.51;57.27;99971.09;108276;1277;21986;-60
2023/11/20 07:44:48;;;;;;;16.70;9.90;;;;;;;5.52;56.86;99970.74;108286;1285;23051;-60
2023/11/20 07:47:14;;;;;;;19.40;10.30;;;;;;;5.53;56.72;99969.88;108282;1281;21994;-60
2023/11/20 07:49:39;;;;;;;16.70;9.80;;;;;;;5.57;56.78;99971.10;108271;1284;22031;-61
2023/11/20 07:52:06;;;;;;;18.40;10.90;;;;;;;5.61;56.82;99970.58;108255;1282;21986;-60
2023/11/20 07:54:31;;;;;;;17.90;9.50;;;;;;;5.65;56.98;99969.73;108252;1284;21997;-60
2023/11/20 07:56:57;;;;;;;22.70;11.60;;;;;;;5.74;57.20;99968.86;108247;1281;22449;-61
2023/11/20 07:59:23;;;;;;;18.70;10.90;;;;;;;5.80;57.05;99969.90;108188;1275;22022;-60
2023/11/20 08:01:51;;;;;;;17.60;10.00;;;;;;;5.85;57.04;99971.66;108187;1285;22002;-60
2023/11/20 08:04:17;;;;;;;14.90;10.30;;;;;;;5.83;56.39;99972.52;108121;1285;21991;-59
2023/11/20 08:06:44;;;;;;;27.80;12.70;;;;;;;5.82;56.03;99970.42;108206;1284;21990;-60
2023/11/20 08:09:11;;;;;;;16.50;10.50;;;;;;;5.88;56.38;99971.14;108222;1284;21995;-60
2023/11/20 08:11:36;;;;;;;16.30;10.40;;;;;;;5.90;56.29;99973.05;108202;1285;22004;-60
2023/11/20 08:14:02;;;;;;;16.80;9.40;;;;;;;5.98;56.61;99980.38;108212;1284;22024;-60
2023/11/20 08:16:28;;;;;;;15.90;9.00;;;;;;;6.02;56.36;99982.82;108201;1277;21986;-60
2023/11/20 08:18:57;;;;;;;15.70;9.60;;;;;;;6.07;56.29;99988.94;108176;1285;21984;-60
2023/11/20 08:21:26;;;;;;;14.70;9.80;;;;;;;6.10;56.08;99993.81;108205;1283;21988;-60
2023/11/20 08:23:52;;;;;;;18.10;9.60;;;;;;;6.16;56.49;99988.92;108170;1284;22177;-60
2023/11/20 08:26:17;;;;;;;13.10;9.10;;;;;;;6.22;56.24;99988.75;108133;1283;21990;-60
2023/11/20 08:28:43;;;;;;;16.10;9.90;;;;;;;6.30;56.24;99988.73;108105;1285;21991;-60
2023/11/20 08:31:09;;;;;;;15.80;9.90;;;;;;;6.38;56.29;99987.34;108140;1285;22046;-60
2023/11/20 08:33:35;;;;;;;14.70;9.70;;;;;;;6.49;56.49;99985.75;108135;1285;22945;-60
2023/11/20 08:36:01;;;;;;;17.20;9.80;;;;;;;6.57;55.97;99984.52;108167;1281;21998;-60
2023/11/20 08:38:27;;;;;;;14.20;9.40;;;;;;;6.60;55.61;99983.48;108357;1286;22021;-60
2023/11/20 08:40:53;;;;;;;16.30;10.00;;;;;;;6.64;55.77;99981.89;108157;1284;22021;-60
2023/11/20 08:43:19;;;;;;;15.60;9.60;;;;;;;6.70;55.79;99979.08;108326;1285;21991;-60
2023/11/20 08:45:45;;;;;;;16.50;9.80;;;;;;;6.69;55.31;99977.70;108303;1285;21990;-60
2023/11/20 08:48:10;;;;;;;15.30;8.70;;;;;;;6.75;55.63;99973.14;108113;1274;21992;-60
2023/11/20 08:50:36;;;;;;;15.50;9.00;;;;;;;6.66;54.89;99971.41;108188;1284;22453;-61
2023/11/20 08:53:02;;;;;;;14.80;9.40;;;;;;;6.79;55.81;99971.73;108204;1285;21967;-60
2023/11/20 08:55:28;;;;;;;16.40;8.90;;;;;;;6.89;55.77;99971.70;108106;1285;21982;-59
2023/11/20 08:57:53;;;;;;;18.90;10.20;;;;;;;6.98;56.02;99970.63;107363;1284;1002365;-61
2023/11/20 09:00:19;;;;;;;14.20;9.00;;;;;;;7.06;55.52;99970.23;107375;1275;1004112;-61
2023/11/20 09:02:45;;;;;;;13.00;8.80;;;;;;;7.13;55.63;99972.98;108146;1271;21992;-61
2023/11/20 09:05:13;;;;;;;13.10;8.20;;;;;;;7.23;55.74;99973.83;108105;1285;21985;-61
2023/11/20 09:07:42;;;;;;;15.10;8.60;;;;;;;7.29;55.26;99978.33;108120;1285;21990;-61
2023/11/20 09:10:09;;;;;;;16.30;10.30;;;;;;;7.41;55.47;99976.52;108166;1285;21986;-61
2023/11/20 09:12:39;;;;;;;15.80;8.20;;;;;;;7.55;54.82;99972.93;108378;1285;22049;-61
2023/11/20 09:15:06;;;;;;;20.40;10.10;;;;;;;7.60;54.36;99967.66;108291;1285;23165;-60
2023/11/20 09:17:34;;;;;;;14.40;9.10;;;;;;;7.71;54.59;99963.75;108318;1284;23049;-61
2023/11/20 09:20:01;;;;;;;16.30;8.80;;;;;;;7.84;54.52;99964.01;108207;1278;21989;-61
2023/11/20 09:22:27;;;;;;;13.00;7.70;;;;;;;7.96;55.15;99966.54;108132;1285;22196;-61
2023/11/20 09:24:52;;;;;;;16.20;8.80;;;;;;;8.02;54.61;99968.74;107369;1285;1002434;-61
2023/11/20 09:27:18;;;;;;;12.30;7.90;;;;;;;8.17;54.67;99966.69;107361;1284;1002246;-61
2023/11/20 09:29:47;;;;;;;14.90;9.00;;;;;;;8.33;55.07;99964.80;108097;1285;23080;-61
2023/11/20 09:32:13;;;;;;;15.90;8.90;;;;;;;8.58;55.47;99965.80;108097;1285;22458;-61
2023/11/20 09:34:39;;;;;;;13.40;8.10;;;;;;;8.73;54.02;99963.55;108118;1285;22071;-61
2023/11/20 09:37:05;;;;;;;13.10;8.70;;;;;;;8.87;53.75;99965.65;108105;1285;22031;-60
2023/11/20 09:39:30;;;;;;;12.90;8.10;;;;;;;8.96;53.61;99965.90;108145;1285;21989;-60
2023/11/20 09:41:56;;;;;;;16.30;9.30;;;;;;;9.05;53.94;99960.71;108147;1285;22005;-60
2023/11/20 09:44:27;;;;;;;11.50;7.70;;;;;;;9.14;54.57;99959.20;108077;1285;21986;-61
2023/11/20 09:46:53;;;;;;;11.40;7.20;;;;;;;9.22;53.72;99955.77;108137;1284;22101;-60
2023/11/20 09:49:22;;;;;;;10.70;6.60;;;;;;;9.21;52.91;99952.63;108124;1284;21980;-60
2023/11/20 09:51:49;;;;;;;12.10;7.00;;;;;;;9.25;52.75;99951.53;108160;1284;21988;-60
2023/11/20 09:54:14;;;;;;;11.10;6.90;;;;;;;9.44;53.42;99950.91;108095;1285;21988;-60
2023/11/20 09:56:40;;;;;;;13.60;7.70;;;;;;;9.54;52.43;99945.50;108109;1281;22067;-62
2023/11/20 09:59:06;;;;;;;11.90;7.60;;;;;;;9.67;52.21;99941.09;108133;1285;21996;-59
2023/11/20 10:01:33;;;;;;;12.30;7.20;;;;;;;9.88;51.99;99938.32;108162;1285;22108;-59
2023/11/20 10:03:58;;;;;;;9.60;5.50;;;;;;;10.14;52.46;99932.09;108102;1285;22134;-59
2023/11/20 10:06:25;;;;;;;12.60;6.80;;;;;;;10.48;52.74;99927.65;108211;1274;21996;-61
2023/11/20 10:08:50;;;;;;;10.10;5.90;;;;;;;10.75;51.56;99925.36;108166;1285;21983;-61
2023/11/20 10:11:17;;;;;;;14.00;6.90;;;;;;;10.87;49.60;99925.48;108219;1284;21991;-60
2023/11/20 10:13:43;;;;;;;8.90;5.60;;;;;;;10.95;50.66;99924.44;108273;1284;22000;-61
2023/11/20 10:16:19;;;;;;;8.30;5.20;;;;;;;11.04;51.36;99918.81;108092;1285;21985;-60
2023/11/20 10:18:46;;;;;;;7.80;4.30;;;;;;;11.15;51.44;99915.77;108105;1286;21986;-61
2023/11/20 10:21:15;;;;;;;8.50;5.10;;;;;;;11.20;49.71;99914.24;108250;1285;21990;-61
2023/11/20 10:23:41;;;;;;;7.90;4.70;;;;;;;11.19;48.71;99913.91;108202;1285;22003;-60
2023/11/20 10:26:07;;;;;;;6.60;3.70;;;;;;;11.19;49.22;99911.81;108272;1277;21990;-60
2023/11/20 10:28:38;;;;;;;8.40;4.30;;;;;;;11.18;48.44;99906.92;108160;1285;21996;-59
2023/11/20 10:31:04;;;;;;;10.10;5.60;;;;;;;11.13;47.55;99904.05;108302;1285;23058;-60
2023/11/20 10:33:30;;;;;;;8.30;4.80;;;;;;;11.16;48.62;99902.74;108177;1283;22255;-60
2023/11/20 10:35:56;;;;;;;7.40;4.50;;;;;;;11.29;49.34;99900.51;108239;1285;21984;-60
2023/11/20 10:38:21;;;;;;;7.20;4.80;;;;;;;11.50;50.34;99897.21;108198;1284;22024;-60
2023/11/20 10:40:54;;;;;;;9.30;5.80;;;;;;;11.70;50.30;99895.50;108150;1285;21991;-60
2023/11/20 10:43:20;;;;;;;8.90;5.20;;;;;;;11.80;49.48;99891.75;108150;1282;21998;-60
2023/11/20 10:45:46;;;;;;;11.70;5.40;;;;;;;11.87;48.65;99892.64;108105;1285;21987;-60
2023/11/20 10:48:12;;;;;;;9.40;4.80;;;;;;;11.92;48.01;99886.00;107417;1286;1002652;-60
2023/11/20 10:50:39;;;;;;;8.80;5.20;;;;;;;11.96;47.89;99885.38;108120;1285;21989;-60
2023/11/20 10:53:08;;;;;;;8.60;5.10;;;;;;;11.93;46.37;99884.93;108173;1285;21992;-60
2023/11/20 10:55:40;;;;;;;5.30;3.70;;;;;;;12.00;47.03;99883.36;108148;1285;22460;-60
2023/11/20 10:58:08;;;;;;;8.10;4.00;;;;;;;12.19;47.84;99881.11;108246;1281;21983;-61
2023/11/20 11:00:34;;;;;;;8.40;3.70;;;;;;;12.33;47.55;99878.64;107407;1285;1002554;-60
2023/11/20 11:03:02;;;;;;;5.20;3.20;;;;;;;12.42;47.06;99879.25;108211;1283;21991;-59
2023/11/20 11:05:28;;;;;;;3.70;2.90;;;;;;;12.49;46.69;99883.28;108317;1284;22018;-59
2023/11/20 11:07:54;;;;;;;5.10;2.80;;;;;;;12.55;45.86;99879.25;108298;1283;21983;-59
2023/11/20 11:10:20;;;;;;;5.60;3.00;;;;;;;12.61;46.75;99880.30;108014;1281;169786;-58
2023/11/20 11:12:46;;;;;;;7.70;4.10;;;;;;;12.69;46.96;99875.48;108135;1285;22004;-59
2023/11/20 11:15:13;;;;;;;8.70;4.20;;;;;;;12.84;47.17;99869.95;108133;1285;21989;-59
2023/11/20 11:17:48;;;;;;;7.50;3.80;;;;;;;12.97;47.38;99871.52;108229;1285;21981;-59